createdAt,value
2022-08-28T00:00:26.040Z,55.31
2022-08-28T00:02:53.403Z,54.86
2022-08-28T00:05:21.541Z,54.64
2022-08-28T00:07:48.232Z,54.94
2022-08-28T00:10:16.882Z,54.37
2022-08-28T00:12:45.444Z,55.16
2022-08-28T00:15:15.236Z,55.48
2022-08-28T00:17:42.289Z,55.81
2022-08-28T00:20:10.675Z,55.14
2022-08-28T00:22:38.517Z,55.67
2022-08-28T00:25:11.381Z,55.13
2022-08-28T00:27:53.057Z,54.47
2022-08-28T00:30:41.875Z,54.55
2022-08-28T00:33:22.349Z,53.94
2022-08-28T00:35:50.186Z,54.24
2022-08-28T00:38:19.979Z,54.75
2022-08-28T00:40:50.441Z,54.74
2022-08-28T00:43:58.749Z,55.21
2022-08-28T00:46:25.423Z,55.03
2022-08-28T00:48:52.034Z,55.30
2022-08-28T00:51:38.820Z,54.63
2022-08-28T00:54:07.990Z,54.12
2022-08-28T00:56:37.508Z,54.09
2022-08-28T00:59:09.529Z,54.19
2022-08-28T01:01:36.652Z,54.24
2022-08-28T01:04:06.208Z,54.85
2022-08-28T01:06:36.819Z,54.83
2022-08-28T01:09:06.385Z,54.62
2022-08-28T01:11:33.437Z,55.24
2022-08-28T01:14:02.942Z,55.23
2022-08-28T01:16:34.068Z,55.27
2022-08-28T01:19:04.346Z,54.71
2022-08-28T01:21:39.972Z,54.84
2022-08-28T01:24:11.729Z,54.48
2022-08-28T01:26:38.542Z,54.07
2022-08-28T01:29:07.225Z,54.73
2022-08-28T01:31:34.593Z,55.15
2022-08-28T01:34:02.595Z,54.92
2022-08-28T01:36:29.776Z,55.00
2022-08-28T01:39:04.239Z,55.10
2022-08-28T01:41:31.008Z,54.60
2022-08-28T01:43:57.665Z,54.64
2022-08-28T01:46:24.345Z,54.79
2022-08-28T01:48:51.003Z,54.27
2022-08-28T01:51:20.476Z,54.79
2022-08-28T01:53:50.588Z,54.81
2022-08-28T01:56:17.735Z,54.76
2022-08-28T01:58:45.326Z,55.22
2022-08-28T02:01:13.755Z,55.14
2022-08-28T02:03:43.135Z,54.91
2022-08-28T02:06:11.156Z,55.39
2022-08-28T02:08:38.054Z,55.76
2022-08-28T02:11:07.440Z,55.73
2022-08-28T02:13:36.131Z,55.76
2022-08-28T02:16:06.045Z,55.74
2022-08-28T02:18:33.098Z,55.82
2022-08-28T02:20:59.708Z,55.70
2022-08-28T02:23:26.355Z,55.91
2022-08-28T02:25:53.014Z,56.02
2022-08-28T02:28:19.637Z,56.04
2022-08-28T02:30:46.389Z,56.22
2022-08-28T02:33:13.086Z,56.12
2022-08-28T02:35:42.507Z,56.19
2022-08-28T02:38:10.398Z,56.36
2022-08-28T02:40:38.550Z,55.94
2022-08-28T02:43:05.884Z,56.32
2022-08-28T02:45:34.517Z,55.91
2022-08-28T02:48:02.047Z,55.82
2022-08-28T02:50:30.518Z,56.30
2022-08-28T02:52:57.755Z,56.66
2022-08-28T02:55:25.201Z,56.41
2022-08-28T02:57:52.753Z,56.28
2022-08-28T03:00:22.513Z,56.27
2022-08-28T03:02:50.355Z,56.20
2022-08-28T03:05:21.018Z,56.30
2022-08-28T03:07:48.753Z,56.37
2022-08-28T03:10:15.541Z,56.30
2022-08-28T03:12:42.405Z,56.04
2022-08-28T03:15:09.587Z,56.30
2022-08-28T03:17:36.964Z,56.21
2022-08-28T03:20:08.687Z,56.26
2022-08-28T03:22:54.690Z,56.28
2022-08-28T03:25:22.427Z,56.47
2022-08-28T03:27:49.673Z,56.30
2022-08-28T03:30:16.677Z,56.09
2022-08-28T03:32:43.512Z,56.31
2022-08-28T03:35:10.417Z,56.15
2022-08-28T03:37:37.078Z,56.23
2022-08-28T03:40:05.301Z,56.26
2022-08-28T03:42:31.986Z,56.52
2022-08-28T03:44:59.185Z,56.39
2022-08-28T03:47:28.308Z,56.56
2022-08-28T03:49:57.344Z,56.58
2022-08-28T03:52:24.741Z,56.33
2022-08-28T03:54:52.692Z,56.65
2022-08-28T03:57:21.951Z,56.45
2022-08-28T03:59:50.380Z,56.57
2022-08-28T04:02:19.403Z,56.52
2022-08-28T04:04:50.616Z,56.53
2022-08-28T04:07:18.704Z,56.44
2022-08-28T04:09:46.336Z,56.50
2022-08-28T04:12:13.139Z,56.55
2022-08-28T04:14:39.785Z,56.56
2022-08-28T04:17:07.215Z,56.58
2022-08-28T04:19:34.459Z,56.64
2022-08-28T04:22:01.306Z,56.63
2022-08-28T04:24:27.952Z,56.60
2022-08-28T04:26:54.613Z,56.61
2022-08-28T04:29:22.565Z,56.22
2022-08-28T04:31:49.782Z,56.50
2022-08-28T04:34:16.430Z,56.28
2022-08-28T04:36:43.116Z,56.39
2022-08-28T04:39:11.112Z,56.36
2022-08-28T04:41:38.786Z,56.39
2022-08-28T04:44:05.829Z,56.70
2022-08-28T04:46:32.523Z,56.74
2022-08-28T04:49:00.022Z,56.76
2022-08-28T04:51:27.208Z,56.47
2022-08-28T04:53:54.081Z,56.42
2022-08-28T04:56:20.725Z,56.51
2022-08-28T04:58:47.704Z,56.73
2022-08-28T05:01:18.808Z,56.57
2022-08-28T05:03:47.925Z,56.40
2022-08-28T05:06:16.197Z,56.51
2022-08-28T05:08:42.988Z,56.52
2022-08-28T05:11:33.695Z,56.55
2022-08-28T05:14:04.540Z,56.61
2022-08-28T05:16:32.650Z,56.48
2022-08-28T05:19:00.980Z,56.40
2022-08-28T05:21:28.261Z,56.61
2022-08-28T05:23:57.463Z,57.00
2022-08-28T05:26:27.067Z,57.10
2022-08-28T05:28:55.952Z,56.86
2022-08-28T05:31:23.876Z,56.73
2022-08-28T05:33:51.862Z,56.68
2022-08-28T05:36:20.277Z,57.15
2022-08-28T05:38:48.501Z,57.68
2022-08-28T05:41:23.214Z,56.81
2022-08-28T05:43:50.395Z,56.64
2022-08-28T05:46:17.806Z,56.58
2022-08-28T05:48:45.809Z,55.91
2022-08-28T05:51:16.660Z,55.55
2022-08-28T05:53:44.732Z,55.59
2022-08-28T05:56:14.501Z,55.34
2022-08-28T05:58:42.313Z,55.31
2022-08-28T06:01:26.789Z,55.45
2022-08-28T06:03:55.549Z,55.45
2022-08-28T06:06:24.751Z,54.82
2022-08-28T06:08:58.927Z,54.66
2022-08-28T06:11:31.007Z,54.83
2022-08-28T06:14:01.897Z,54.75
2022-08-28T06:16:31.442Z,54.77
2022-08-28T06:18:58.246Z,54.71
2022-08-28T06:21:24.869Z,54.12
2022-08-28T06:23:51.965Z,54.39
2022-08-28T06:26:18.856Z,54.30
2022-08-28T06:28:45.727Z,53.92
2022-08-28T06:31:24.464Z,54.15
2022-08-28T06:33:57.617Z,54.24
2022-08-28T06:36:29.092Z,53.87
2022-08-28T06:38:58.521Z,54.17
2022-08-28T06:41:27.321Z,54.07
2022-08-28T06:43:54.711Z,53.96
2022-08-28T06:46:22.115Z,54.08
2022-08-28T06:48:48.782Z,53.94
2022-08-28T06:51:15.431Z,54.19
2022-08-28T06:53:44.528Z,54.33
2022-08-28T06:56:23.651Z,54.40
2022-08-28T06:58:55.727Z,53.93
2022-08-28T07:01:29.727Z,54.43
2022-08-28T07:03:59.922Z,54.49
2022-08-28T07:06:28.161Z,54.43
2022-08-28T07:08:54.770Z,54.31
2022-08-28T07:11:26.330Z,54.29
2022-08-28T07:13:54.418Z,54.29
2022-08-28T07:16:25.130Z,54.47
2022-08-28T07:18:52.283Z,54.96
2022-08-28T07:21:20.493Z,55.09
2022-08-28T07:23:48.137Z,54.98
2022-08-28T07:26:18.520Z,55.16
2022-08-28T07:28:45.679Z,54.69
2022-08-28T07:31:15.328Z,54.60
2022-08-28T07:33:42.492Z,54.22
2022-08-28T07:36:15.995Z,54.20
2022-08-28T07:38:57.341Z,53.69
2022-08-28T07:41:27.638Z,53.78
2022-08-28T07:44:13.087Z,53.94
2022-08-28T07:46:40.867Z,54.14
2022-08-28T07:49:08.808Z,54.06
2022-08-28T07:51:35.571Z,54.10
2022-08-28T07:54:03.977Z,54.24
2022-08-28T07:56:31.253Z,54.25
2022-08-28T07:58:58.882Z,54.06
2022-08-28T08:01:28.913Z,54.48
2022-08-28T08:04:01.337Z,54.15
2022-08-28T08:06:34.361Z,54.11
2022-08-28T08:09:01.981Z,54.24
2022-08-28T08:11:32.270Z,53.88
2022-08-28T08:14:05.618Z,53.85
2022-08-28T08:16:39.072Z,53.86
2022-08-28T08:19:06.505Z,53.53
2022-08-28T08:21:33.196Z,53.48
2022-08-28T08:23:59.795Z,53.61
2022-08-28T08:26:30.396Z,53.63
2022-08-28T08:28:57.501Z,53.82
2022-08-28T08:31:33.581Z,53.93
2022-08-28T08:34:04.425Z,53.77
2022-08-28T08:36:33.481Z,54.46
2022-08-28T08:39:01.022Z,54.12
2022-08-28T08:41:32.061Z,54.12
2022-08-28T08:44:04.742Z,53.94
2022-08-28T08:46:41.493Z,54.08
2022-08-28T08:49:16.026Z,53.81
2022-08-28T08:52:11.859Z,53.97
2022-08-28T08:54:44.064Z,54.25
2022-08-28T08:57:14.907Z,54.27
2022-08-28T08:59:42.235Z,54.35
2022-08-28T09:02:14.532Z,54.04
2022-08-28T09:05:00.000Z,52.87
2022-08-28T09:07:34.308Z,51.79
2022-08-28T09:10:00.954Z,50.80
2022-08-28T09:12:31.105Z,50.65
2022-08-28T09:15:09.874Z,50.09
2022-08-28T09:17:46.292Z,49.82
2022-08-28T09:20:16.266Z,49.58
2022-08-28T09:22:45.296Z,49.20
2022-08-28T09:25:33.220Z,49.22
2022-08-28T09:28:08.405Z,49.04
2022-08-28T09:30:42.084Z,49.36
2022-08-28T09:33:08.751Z,49.80
2022-08-28T09:35:37.561Z,49.43
2022-08-28T09:38:27.601Z,49.05
2022-08-28T09:41:31.351Z,48.83
2022-08-28T09:43:58.205Z,48.48
2022-08-28T09:46:30.318Z,47.07
2022-08-28T09:49:13.368Z,46.90
2022-08-28T09:51:40.961Z,46.76
2022-08-28T09:54:22.642Z,46.47
2022-08-28T09:56:50.522Z,45.61
2022-08-28T09:59:22.791Z,45.16
2022-08-28T10:01:55.668Z,45.20
2022-08-28T10:04:59.999Z,45.75
2022-08-28T10:07:49.289Z,45.25
2022-08-28T10:10:38.629Z,44.30
2022-08-28T10:13:16.138Z,43.29
2022-08-28T10:16:00.839Z,42.54
2022-08-28T10:18:45.401Z,41.38
2022-08-28T10:21:20.647Z,42.07
2022-08-28T10:24:09.093Z,40.53
2022-08-28T10:26:48.691Z,39.72
2022-08-28T10:29:45.280Z,40.71
2022-08-28T10:32:30.658Z,40.82
2022-08-28T10:35:09.325Z,39.07
2022-08-28T10:37:54.860Z,38.98
2022-08-28T10:40:50.256Z,39.63
2022-08-28T10:43:25.762Z,39.99
2022-08-28T10:45:53.040Z,39.24
2022-08-28T10:48:29.251Z,39.48
2022-08-28T10:51:07.316Z,37.42
2022-08-28T10:53:45.708Z,36.17
2022-08-28T10:56:20.847Z,37.20
2022-08-28T10:58:51.840Z,35.21
2022-08-28T11:01:40.301Z,35.38
2022-08-28T11:04:24.859Z,38.08
2022-08-28T11:07:09.345Z,34.79
2022-08-28T11:09:43.036Z,36.45
2022-08-28T11:12:29.797Z,37.17
2022-08-28T11:14:56.519Z,35.24
2022-08-28T11:17:25.152Z,34.64
2022-08-28T11:20:13.768Z,35.41
2022-08-28T11:22:46.269Z,37.45
2022-08-28T11:25:26.505Z,36.32
2022-08-28T11:28:23.952Z,36.25
2022-08-28T11:31:10.561Z,33.12
2022-08-28T11:33:50.732Z,32.35
2022-08-28T11:36:19.997Z,37.11
2022-08-28T11:38:52.311Z,39.82
2022-08-28T11:41:40.558Z,39.87
2022-08-28T11:44:11.094Z,40.82
2022-08-28T11:46:49.513Z,41.21
2022-08-28T11:49:27.824Z,39.34
2022-08-28T11:52:08.206Z,41.98
2022-08-28T11:55:13.441Z,41.81
2022-08-28T12:00:56.193Z,43.19
2022-08-28T12:03:35.781Z,42.80
2022-08-28T12:06:03.264Z,43.94
2022-08-28T12:08:45.147Z,45.18
2022-08-28T12:11:40.825Z,44.14
2022-08-28T12:14:25.480Z,43.49
2022-08-28T12:17:05.214Z,43.12
2022-08-28T12:19:55.279Z,44.29
2022-08-28T12:22:26.852Z,45.21
2022-08-28T12:25:04.561Z,44.94
2022-08-28T12:27:32.021Z,44.79
2022-08-28T12:30:02.650Z,43.94
2022-08-28T12:32:53.500Z,43.87
2022-08-28T12:35:23.566Z,43.12
2022-08-28T12:37:51.973Z,42.35
2022-08-28T12:40:21.714Z,41.98
2022-08-28T12:43:00.710Z,43.83
2022-08-28T12:45:36.373Z,43.73
2022-08-28T12:48:18.297Z,43.52
2022-08-28T12:50:45.055Z,42.62
2022-08-28T12:53:18.511Z,42.65
2022-08-28T12:55:46.683Z,43.15
2022-08-28T12:58:34.935Z,43.18
2022-08-28T13:01:16.817Z,43.16
2022-08-28T13:03:51.285Z,42.79
2022-08-28T13:06:29.002Z,42.87
2022-08-28T13:09:22.839Z,43.22
2022-08-28T13:11:51.579Z,42.57
2022-08-28T13:14:41.953Z,42.58
2022-08-28T13:17:10.248Z,43.29
2022-08-28T13:19:37.986Z,43.41
2022-08-28T13:22:26.148Z,43.58
2022-08-28T13:24:59.515Z,43.53
2022-08-28T13:27:26.485Z,44.34
2022-08-28T13:30:04.148Z,43.53
2022-08-28T13:32:34.041Z,43.37
2022-08-28T13:35:13.661Z,42.51
2022-08-28T13:37:43.873Z,43.10
2022-08-28T13:40:25.654Z,43.75
2022-08-28T13:43:07.111Z,43.60
2022-08-28T13:45:35.794Z,43.04
2022-08-28T13:48:18.461Z,43.85
2022-08-28T13:50:48.975Z,44.26
2022-08-28T13:53:18.435Z,44.49
2022-08-28T13:55:45.646Z,44.68
2022-08-28T13:58:13.939Z,45.03
2022-08-28T14:00:47.214Z,45.27
2022-08-28T14:03:33.048Z,45.57
2022-08-28T14:06:00.005Z,45.87
2022-08-28T14:08:26.761Z,46.07
2022-08-28T14:10:53.604Z,46.43
2022-08-28T14:13:23.041Z,45.39
2022-08-28T14:15:49.943Z,44.41
2022-08-28T14:18:18.122Z,44.28
2022-08-28T14:20:44.751Z,44.11
2022-08-28T14:23:12.363Z,44.68
2022-08-28T14:25:44.214Z,45.00
2022-08-28T14:28:11.640Z,44.91
2022-08-28T14:30:48.258Z,45.41
2022-08-28T14:33:18.678Z,44.98
2022-08-28T14:35:49.162Z,45.35
2022-08-28T14:38:16.540Z,45.60
2022-08-28T14:40:44.821Z,45.34
2022-08-28T14:43:13.519Z,44.90
2022-08-28T14:45:44.947Z,44.92
2022-08-28T14:48:12.011Z,44.79
2022-08-28T14:50:41.681Z,44.98
2022-08-28T14:53:09.715Z,45.07
2022-08-28T14:55:44.286Z,45.28
2022-08-28T14:58:12.605Z,45.79
2022-08-28T15:00:47.177Z,45.39
2022-08-28T15:03:15.222Z,45.44
2022-08-28T15:05:42.447Z,45.16
2022-08-28T15:08:11.549Z,45.45
2022-08-28T15:10:40.075Z,45.18
2022-08-28T15:13:07.714Z,45.52
2022-08-28T15:15:36.561Z,45.36
2022-08-28T15:18:03.188Z,45.39
2022-08-28T15:20:29.956Z,45.62
2022-08-28T15:22:56.721Z,45.73
2022-08-28T15:25:23.433Z,45.53
2022-08-28T15:27:50.055Z,45.44
2022-08-28T15:30:16.683Z,45.62
2022-08-28T15:32:46.110Z,45.60
2022-08-28T15:35:12.713Z,45.28
2022-08-28T15:37:39.331Z,45.25
2022-08-28T15:40:25.628Z,44.98
2022-08-28T15:42:52.430Z,45.31
2022-08-28T15:45:20.183Z,45.28
2022-08-28T15:47:46.966Z,45.63
2022-08-28T15:50:16.172Z,45.72
2022-08-28T15:52:46.814Z,46.02
2022-08-28T15:55:13.808Z,45.87
2022-08-28T15:57:40.425Z,46.14
2022-08-28T16:00:10.336Z,46.15
2022-08-28T16:02:37.376Z,46.23
2022-08-28T16:05:04.656Z,46.42
2022-08-28T16:07:31.337Z,46.55
2022-08-28T16:09:58.000Z,46.52
2022-08-28T16:12:25.490Z,46.81
2022-08-28T16:14:52.158Z,46.98
2022-08-28T16:17:19.018Z,46.85
2022-08-28T16:19:46.699Z,47.32
2022-08-28T16:22:17.104Z,47.46
2022-08-28T16:24:45.242Z,47.98
2022-08-28T16:27:15.417Z,47.50
2022-08-28T16:29:43.385Z,47.93
2022-08-28T16:32:11.713Z,48.34
2022-08-28T16:34:38.702Z,47.74
2022-08-28T16:37:08.011Z,48.37
2022-08-28T16:39:35.805Z,48.22
2022-08-28T16:42:02.769Z,48.12
2022-08-28T16:44:29.548Z,48.67
2022-08-28T16:46:56.391Z,48.49
2022-08-28T16:49:23.986Z,48.58
2022-08-28T16:51:51.458Z,48.53
2022-08-28T16:54:18.474Z,48.89
2022-08-28T16:56:45.891Z,48.94
2022-08-28T16:59:16.482Z,48.72
2022-08-28T17:01:43.474Z,48.27
2022-08-28T17:04:10.541Z,48.46
2022-08-28T17:06:37.161Z,48.46
2022-08-28T17:09:04.032Z,48.75
2022-08-28T17:11:31.098Z,48.85
2022-08-28T17:13:59.316Z,48.63
2022-08-28T17:16:31.259Z,48.75
2022-08-28T17:18:59.348Z,48.86
2022-08-28T17:21:44.727Z,48.91
2022-08-28T17:24:12.625Z,48.64
2022-08-28T17:26:40.708Z,49.34
2022-08-28T17:29:07.503Z,49.71
2022-08-28T17:31:34.397Z,49.25
2022-08-28T17:34:01.104Z,49.97
2022-08-28T17:36:33.282Z,49.99
2022-08-28T17:39:02.969Z,50.13
2022-08-28T17:41:29.674Z,49.55
2022-08-28T17:43:56.401Z,50.11
2022-08-28T17:46:23.062Z,49.84
2022-08-28T17:48:53.594Z,50.03
2022-08-28T17:51:41.859Z,50.37
2022-08-28T17:54:15.623Z,50.20
2022-08-28T17:56:42.560Z,49.92
2022-08-28T17:59:10.528Z,49.57
2022-08-28T18:01:37.869Z,50.31
2022-08-28T18:04:05.334Z,50.05
2022-08-28T18:06:35.256Z,50.31
2022-08-28T18:09:02.176Z,50.97
2022-08-28T18:11:28.836Z,51.57
2022-08-28T18:13:55.587Z,51.69
2022-08-28T18:16:23.823Z,51.53
2022-08-28T18:18:52.405Z,52.16
2022-08-28T18:21:20.124Z,51.79
2022-08-28T18:23:46.738Z,52.25
2022-08-28T18:26:13.669Z,51.98
2022-08-28T18:28:40.314Z,51.85
2022-08-28T18:31:08.130Z,52.03
2022-08-28T18:33:37.103Z,52.64
2022-08-28T18:36:07.410Z,52.75
2022-08-28T18:38:35.511Z,52.52
2022-08-28T18:41:04.690Z,52.44
2022-08-28T18:43:31.895Z,52.76
2022-08-28T18:46:02.469Z,52.65
2022-08-28T18:48:29.818Z,52.39
2022-08-28T18:50:56.484Z,53.13
2022-08-28T18:53:23.969Z,52.46
2022-08-28T18:55:53.781Z,52.97
2022-08-28T18:58:22.285Z,52.98
2022-08-28T19:00:49.490Z,53.08
2022-08-28T19:03:16.113Z,53.23
2022-08-28T19:05:42.773Z,53.13
2022-08-28T19:08:09.431Z,53.08
2022-08-28T19:10:37.889Z,53.61
2022-08-28T19:13:05.248Z,53.28
2022-08-28T19:15:33.279Z,53.84
2022-08-28T19:18:03.151Z,54.04
2022-08-28T19:20:30.265Z,53.80
2022-08-28T19:22:58.395Z,53.93
2022-08-28T19:25:29.260Z,53.89
2022-08-28T19:28:01.651Z,53.77
2022-08-28T19:30:32.900Z,53.92
2022-08-28T19:33:00.598Z,53.92
2022-08-28T19:35:28.043Z,54.39
2022-08-28T19:37:54.824Z,54.35
2022-08-28T19:40:22.838Z,54.17
2022-08-28T19:42:52.901Z,53.80
2022-08-28T19:45:19.781Z,53.93
2022-08-28T19:47:47.067Z,53.54
2022-08-28T19:50:14.964Z,53.54
2022-08-28T19:52:43.438Z,53.66
2022-08-28T19:55:17.685Z,53.53
2022-08-28T19:57:46.822Z,53.44
2022-08-28T20:00:15.273Z,53.61
2022-08-28T20:02:42.049Z,54.03
2022-08-28T20:05:09.914Z,53.41
2022-08-28T20:07:36.936Z,53.74
2022-08-28T20:10:04.156Z,53.69
2022-08-28T20:12:30.757Z,53.56
2022-08-28T20:15:01.352Z,53.34
2022-08-28T20:17:30.025Z,53.99
2022-08-28T20:20:02.403Z,53.82
2022-08-28T20:22:31.850Z,53.85
2022-08-28T20:24:59.514Z,53.71
2022-08-28T20:27:26.363Z,53.75
2022-08-28T20:29:53.061Z,54.01
2022-08-28T20:32:19.892Z,54.10
2022-08-28T20:34:46.500Z,53.78
2022-08-28T20:37:13.560Z,54.15
2022-08-28T20:39:41.664Z,54.10
2022-08-28T20:42:09.794Z,54.06
2022-08-28T20:44:36.542Z,53.97
2022-08-28T20:47:03.754Z,54.08
2022-08-28T20:49:30.382Z,54.34
2022-08-28T20:51:57.527Z,54.42
2022-08-28T20:54:34.397Z,54.43
2022-08-28T20:57:04.566Z,54.49
2022-08-28T20:59:35.534Z,54.37
2022-08-28T21:02:09.351Z,54.52
2022-08-28T21:04:38.814Z,54.80
2022-08-28T21:07:06.076Z,54.63
2022-08-28T21:09:36.661Z,54.52
2022-08-28T21:12:19.903Z,54.71
2022-08-28T21:14:51.437Z,54.63
2022-08-28T21:17:29.143Z,54.38
2022-08-28T21:20:05.764Z,54.47
2022-08-28T21:22:35.127Z,54.48
2022-08-28T21:25:02.909Z,54.23
2022-08-28T21:27:29.878Z,53.90
2022-08-28T21:30:00.275Z,53.91
2022-08-28T21:32:28.835Z,54.23
2022-08-28T21:34:55.532Z,54.32
2022-08-28T21:37:23.027Z,54.63
2022-08-28T21:39:49.828Z,54.46
2022-08-28T21:42:16.476Z,54.73
2022-08-28T21:44:48.336Z,54.62
2022-08-28T21:47:19.630Z,54.70
2022-08-28T21:49:49.493Z,54.58
2022-08-28T21:52:18.571Z,54.47
2022-08-28T21:54:45.321Z,54.64
2022-08-28T21:57:11.934Z,54.49
2022-08-28T21:59:39.025Z,54.70
2022-08-28T22:02:06.414Z,55.23
2022-08-28T22:04:34.841Z,55.41
2022-08-28T22:07:01.858Z,54.87
2022-08-28T22:09:29.064Z,54.86
2022-08-28T22:11:55.692Z,54.93
2022-08-28T22:14:25.148Z,54.56
2022-08-28T22:16:52.332Z,55.02
2022-08-28T22:19:19.106Z,54.67
2022-08-28T22:22:04.184Z,54.91
2022-08-28T22:24:30.851Z,54.87
2022-08-28T22:26:57.898Z,54.70
2022-08-28T22:29:25.502Z,54.69
2022-08-28T22:31:52.700Z,54.27
2022-08-28T22:34:19.607Z,54.67
2022-08-28T22:36:46.226Z,54.74
2022-08-28T22:39:12.885Z,54.75
2022-08-28T22:41:40.415Z,54.69
2022-08-28T22:44:07.681Z,54.93
2022-08-28T22:46:34.655Z,54.58
2022-08-28T22:49:01.399Z,54.76
2022-08-28T22:51:28.042Z,54.73
2022-08-28T22:53:56.028Z,54.90
2022-08-28T22:56:22.636Z,55.02
2022-08-28T22:58:49.363Z,55.04
2022-08-28T23:01:22.508Z,54.56
2022-08-28T23:03:50.103Z,54.97
2022-08-28T23:06:17.158Z,54.83
2022-08-28T23:08:44.081Z,55.21
2022-08-28T23:11:11.048Z,54.79
2022-08-28T23:13:38.002Z,54.89
2022-08-28T23:16:05.128Z,54.73
2022-08-28T23:18:41.781Z,55.05
2022-08-28T23:21:20.132Z,54.72
2022-08-28T23:23:47.122Z,54.80
2022-08-28T23:26:15.886Z,54.75
2022-08-28T23:28:44.361Z,54.77
2022-08-28T23:31:10.973Z,54.50
2022-08-28T23:33:37.643Z,54.77
2022-08-28T23:36:05.121Z,54.95
2022-08-28T23:38:31.749Z,54.88
2022-08-28T23:40:58.691Z,54.88
2022-08-28T23:43:25.298Z,55.06
2022-08-28T23:45:52.152Z,55.18
2022-08-28T23:48:18.958Z,55.10
2022-08-28T23:50:45.699Z,55.15
2022-08-28T23:53:12.351Z,55.06
2022-08-28T23:55:40.679Z,55.04
2022-08-28T23:58:07.310Z,55.14
